createdAt,value
2017-02-14T00:00:37.162Z,0
2017-02-14T00:01:25.662Z,0
2017-02-14T00:02:14.123Z,0
2017-02-14T00:03:02.944Z,0
2017-02-14T00:03:51.531Z,0
2017-02-14T00:04:39.960Z,0
2017-02-14T00:05:28.602Z,0
2017-02-14T00:06:17.332Z,0
2017-02-14T00:07:05.832Z,0
2017-02-14T00:07:49.417Z,0
2017-02-14T00:08:29.840Z,0
2017-02-14T00:09:10.897Z,0
2017-02-14T00:09:52.817Z,0
2017-02-14T00:10:33.238Z,0
2017-02-14T00:11:13.670Z,0
2017-02-14T00:11:54.075Z,0
2017-02-14T00:12:36.283Z,0
2017-02-14T00:13:16.693Z,0
2017-02-14T00:13:58.283Z,0
2017-02-14T00:14:39.525Z,0
2017-02-14T00:15:20.609Z,0
2017-02-14T00:16:01.032Z,0
2017-02-14T00:16:42.111Z,0
2017-02-14T00:17:22.491Z,0
2017-02-14T00:18:02.910Z,0
2017-02-14T00:18:44.025Z,0
2017-02-14T00:19:24.461Z,0
2017-02-14T00:20:04.796Z,0
2017-02-14T00:20:45.186Z,0
2017-02-14T00:21:26.391Z,0
2017-02-14T00:22:06.785Z,0
2017-02-14T00:22:48.907Z,0
2017-02-14T00:23:31.100Z,0
2017-02-14T00:24:12.326Z,0
2017-02-14T00:24:52.732Z,0
2017-02-14T00:25:33.155Z,0
2017-02-14T00:26:14.495Z,0
2017-02-14T00:26:57.262Z,0
2017-02-14T00:27:37.637Z,0
2017-02-14T00:28:19.011Z,0
2017-02-14T00:29:00.093Z,0
2017-02-14T00:29:41.340Z,0
2017-02-14T00:30:23.529Z,0
2017-02-14T00:31:03.880Z,0
2017-02-14T00:31:44.306Z,0
2017-02-14T00:32:24.719Z,0
2017-02-14T00:33:05.101Z,0
2017-02-14T00:33:45.456Z,0
2017-02-14T00:34:25.911Z,0
2017-02-14T00:35:06.276Z,0
2017-02-14T00:35:50.418Z,0
2017-02-14T00:36:30.837Z,0
2017-02-14T00:37:12.094Z,0
2017-02-14T00:37:53.442Z,0
2017-02-14T00:38:33.856Z,0
2017-02-14T00:39:14.886Z,0
2017-02-14T00:39:55.337Z,0
2017-02-14T00:40:36.470Z,0
2017-02-14T00:41:18.279Z,0
2017-02-14T00:41:58.734Z,0
2017-02-14T00:42:39.166Z,0
2017-02-14T00:43:19.620Z,0
2017-02-14T00:44:00.005Z,0
2017-02-14T00:44:40.395Z,0
2017-02-14T00:45:21.603Z,0
2017-02-14T00:46:04.429Z,0
2017-02-14T00:46:49.258Z,0
2017-02-14T00:47:29.689Z,0
2017-02-14T00:48:10.992Z,0
2017-02-14T00:48:53.281Z,0
2017-02-14T00:49:33.618Z,0
2017-02-14T00:50:14.118Z,0
2017-02-14T00:50:54.496Z,0
2017-02-14T00:51:36.436Z,0
2017-02-14T00:52:16.807Z,0
2017-02-14T00:52:57.989Z,0
2017-02-14T00:53:39.738Z,0
2017-02-14T00:54:20.178Z,0
2017-02-14T00:55:00.561Z,0
2017-02-14T00:55:41.831Z,0
2017-02-14T00:56:22.793Z,0
2017-02-14T00:57:03.148Z,0
2017-02-14T00:57:43.570Z,0
2017-02-14T00:58:23.942Z,0
2017-02-14T00:59:04.398Z,0
2017-02-14T00:59:45.726Z,0
2017-02-14T01:00:26.206Z,0
2017-02-14T01:01:06.599Z,0
2017-02-14T01:01:46.983Z,0
2017-02-14T01:02:27.429Z,0
2017-02-14T01:03:07.815Z,0
2017-02-14T01:03:48.212Z,0
2017-02-14T01:04:30.378Z,0
2017-02-14T01:05:11.746Z,0
2017-02-14T01:05:52.162Z,0
2017-02-14T01:06:33.433Z,0
2017-02-14T01:07:13.840Z,0
2017-02-14T01:07:54.274Z,0
2017-02-14T01:08:34.670Z,0
2017-02-14T01:09:15.031Z,0
2017-02-14T01:09:55.469Z,0
2017-02-14T01:10:35.849Z,0
2017-02-14T01:11:16.256Z,0
2017-02-14T01:11:56.672Z,0
2017-02-14T01:12:37.058Z,0
2017-02-14T01:13:17.494Z,0
2017-02-14T01:13:57.863Z,0
2017-02-14T01:14:38.341Z,0
2017-02-14T01:15:18.750Z,0
2017-02-14T01:15:59.102Z,0
2017-02-14T01:16:40.536Z,0
2017-02-14T01:17:20.924Z,0
2017-02-14T01:18:01.359Z,0
2017-02-14T01:18:41.712Z,0
2017-02-14T01:19:22.143Z,0
2017-02-14T01:20:03.418Z,0
2017-02-14T01:20:43.887Z,0
2017-02-14T01:23:21.437Z,0
2017-02-14T01:24:09.456Z,0
2017-02-14T01:24:58.309Z,0
2017-02-14T01:25:46.636Z,0
2017-02-14T01:26:35.857Z,0
2017-02-14T01:27:24.495Z,0
2017-02-14T01:28:12.953Z,0
2017-02-14T01:29:01.517Z,0
2017-02-14T01:29:49.963Z,0
2017-02-14T01:30:38.864Z,0
2017-02-14T01:31:27.397Z,0
2017-02-14T01:32:16.273Z,0
2017-02-14T01:33:04.652Z,0
2017-02-14T01:33:53.433Z,0
2017-02-14T01:34:41.974Z,0
2017-02-14T01:35:30.594Z,0
2017-02-14T01:36:19.469Z,0
2017-02-14T01:37:07.822Z,0
2017-02-14T01:37:56.818Z,0
2017-02-14T01:38:45.130Z,0
2017-02-14T01:39:33.798Z,0
2017-02-14T01:40:22.703Z,0
2017-02-14T01:41:11.064Z,0
2017-02-14T01:41:59.635Z,0
2017-02-14T01:42:48.479Z,0
2017-02-14T01:43:37.408Z,0
2017-02-14T01:44:25.850Z,0
2017-02-14T01:45:14.466Z,0
2017-02-14T01:46:03.031Z,0
2017-02-14T01:46:51.683Z,0
2017-02-14T01:47:41.354Z,0
2017-02-14T01:48:30.243Z,0
2017-02-14T01:49:18.899Z,0
2017-02-14T01:50:09.118Z,0
2017-02-14T01:50:57.391Z,0
2017-02-14T01:53:18.472Z,0
2017-02-14T01:54:07.525Z,0
2017-02-14T01:54:56.325Z,0
2017-02-14T01:55:45.469Z,0
2017-02-14T01:56:33.957Z,0
2017-02-14T01:57:22.347Z,0
2017-02-14T01:58:11.229Z,0
2017-02-14T01:58:59.690Z,0
2017-02-14T01:59:48.290Z,0
2017-02-14T02:00:36.772Z,0
2017-02-14T02:01:25.369Z,0
2017-02-14T02:02:13.804Z,0
2017-02-14T02:03:02.424Z,0
2017-02-14T02:03:50.847Z,0
2017-02-14T02:04:39.596Z,0
2017-02-14T02:05:27.971Z,0
2017-02-14T02:06:16.844Z,0
2017-02-14T02:07:05.146Z,0
2017-02-14T02:07:53.517Z,0
2017-02-14T02:08:42.820Z,0
2017-02-14T02:09:31.046Z,0
2017-02-14T02:10:19.450Z,0
2017-02-14T02:11:08.279Z,0
2017-02-14T02:11:56.481Z,0
2017-02-14T02:12:45.062Z,0
2017-02-14T02:13:33.930Z,0
2017-02-14T02:14:22.096Z,0
2017-02-14T02:15:11.064Z,0
2017-02-14T02:15:59.098Z,0
2017-02-14T02:16:48.299Z,0
2017-02-14T02:17:36.356Z,0
2017-02-14T02:18:24.985Z,0
2017-02-14T02:19:13.916Z,0
2017-02-14T02:20:02.392Z,0
2017-02-14T02:20:48.502Z,0
2017-02-14T02:21:35.591Z,0
2017-02-14T02:22:23.885Z,0
2017-02-14T02:23:12.276Z,0
2017-02-14T02:24:00.795Z,0
2017-02-14T02:24:49.538Z,0
2017-02-14T02:25:37.773Z,0
2017-02-14T02:26:26.350Z,0
2017-02-14T02:27:14.935Z,0
2017-02-14T02:28:03.467Z,0
2017-02-14T02:28:52.389Z,0
2017-02-14T02:29:35.144Z,0
2017-02-14T02:30:16.435Z,0
2017-02-14T02:30:56.861Z,0
2017-02-14T02:31:39.711Z,0
2017-02-14T02:32:20.056Z,0
2017-02-14T02:33:00.463Z,0
2017-02-14T02:33:40.912Z,0
2017-02-14T02:34:22.167Z,0
2017-02-14T02:35:02.607Z,0
2017-02-14T02:35:43.025Z,0
2017-02-14T02:36:23.394Z,0
2017-02-14T02:37:03.801Z,0
2017-02-14T02:37:44.945Z,0
2017-02-14T02:38:25.406Z,0
2017-02-14T02:39:06.327Z,0
2017-02-14T02:39:47.489Z,0
2017-02-14T02:40:28.729Z,0
2017-02-14T02:41:09.099Z,0
2017-02-14T02:41:52.166Z,0
2017-02-14T02:42:33.196Z,0
2017-02-14T02:43:15.504Z,0
2017-02-14T02:43:57.294Z,0
2017-02-14T02:44:38.437Z,0
2017-02-14T02:45:19.351Z,0
2017-02-14T02:46:01.501Z,0
2017-02-14T02:46:43.808Z,0
2017-02-14T02:49:14.513Z,0
2017-02-14T02:50:03.231Z,0
2017-02-14T02:50:51.673Z,0
2017-02-14T02:51:40.042Z,0
2017-02-14T02:52:28.929Z,0
2017-02-14T02:53:17.094Z,0
2017-02-14T02:54:05.716Z,0
2017-02-14T02:54:54.060Z,0
2017-02-14T02:55:42.786Z,0
2017-02-14T02:56:30.902Z,0
2017-02-14T02:57:14.044Z,0
2017-02-14T02:57:55.387Z,0
2017-02-14T02:58:36.673Z,0
2017-02-14T02:59:19.951Z,0
2017-02-14T03:00:02.212Z,0
2017-02-14T03:00:44.970Z,0
2017-02-14T03:01:25.335Z,0
2017-02-14T03:02:05.756Z,0
2017-02-14T03:02:46.146Z,0
2017-02-14T03:03:27.879Z,0
2017-02-14T03:04:09.239Z,0
2017-02-14T03:04:50.429Z,0
2017-02-14T03:05:31.742Z,0
2017-02-14T03:06:12.151Z,0
2017-02-14T03:06:53.510Z,0
2017-02-14T03:07:34.555Z,0
2017-02-14T03:08:15.950Z,0
2017-02-14T03:08:57.934Z,0
2017-02-14T03:11:12.792Z,0
2017-02-14T03:11:53.887Z,0
2017-02-14T03:12:34.331Z,0
2017-02-14T03:13:22.290Z,0
2017-02-14T03:14:03.483Z,0
2017-02-14T03:14:43.926Z,0
2017-02-14T03:15:30.689Z,0
2017-02-14T03:16:11.125Z,0
2017-02-14T03:16:51.470Z,0
2017-02-14T03:17:34.820Z,0
2017-02-14T03:18:16.676Z,0
2017-02-14T03:18:57.397Z,0
2017-02-14T03:19:41.336Z,0
2017-02-14T03:20:21.763Z,0
2017-02-14T03:21:03.678Z,0
2017-02-14T03:21:44.707Z,0
2017-02-14T03:22:32.018Z,0
2017-02-14T03:23:12.998Z,0
2017-02-14T03:23:53.481Z,0
2017-02-14T03:24:35.398Z,0
2017-02-14T03:25:16.762Z,0
2017-02-14T03:25:57.836Z,0
2017-02-14T03:26:39.297Z,0
2017-02-14T03:27:20.532Z,0
2017-02-14T03:28:00.947Z,0
2017-02-14T03:28:41.976Z,0
2017-02-14T03:29:23.260Z,0
2017-02-14T03:30:04.428Z,0
2017-02-14T03:30:50.909Z,0
2017-02-14T03:31:33.834Z,0
2017-02-14T03:32:14.287Z,0
2017-02-14T03:33:03.388Z,0
2017-02-14T03:33:45.247Z,0
2017-02-14T03:34:27.298Z,0
2017-02-14T03:35:07.728Z,0
2017-02-14T03:35:48.742Z,0
2017-02-14T03:36:29.214Z,0
2017-02-14T03:37:11.194Z,0
2017-02-14T03:37:52.521Z,0
2017-02-14T03:38:34.432Z,0
2017-02-14T03:39:16.284Z,0
2017-02-14T03:39:58.193Z,0
2017-02-14T03:40:42.235Z,0
2017-02-14T03:41:23.363Z,0
2017-02-14T03:42:08.721Z,0
2017-02-14T03:42:49.953Z,0
2017-02-14T03:43:30.363Z,0
2017-02-14T03:44:10.742Z,0
2017-02-14T03:44:52.161Z,0
2017-02-14T03:45:35.337Z,0
2017-02-14T03:46:17.242Z,0
2017-02-14T03:46:57.718Z,0
2017-02-14T03:49:15.668Z,0
2017-02-14T03:50:04.043Z,0
2017-02-14T03:50:52.145Z,0
2017-02-14T03:51:40.738Z,0
2017-02-14T03:52:28.096Z,0
2017-02-14T03:53:16.731Z,0
2017-02-14T03:54:05.079Z,0
2017-02-14T03:54:54.050Z,0
2017-02-14T03:55:42.521Z,0
2017-02-14T03:56:31.492Z,0
2017-02-14T03:57:19.515Z,0
2017-02-14T03:58:08.312Z,0
2017-02-14T03:58:56.703Z,0
2017-02-14T03:59:45.522Z,0
2017-02-14T04:00:34.223Z,0
2017-02-14T04:01:22.994Z,0
2017-02-14T04:02:11.421Z,0
2017-02-14T04:03:00.099Z,0
2017-02-14T04:03:46.367Z,0
2017-02-14T04:04:33.584Z,0
2017-02-14T04:05:22.305Z,0
2017-02-14T04:06:10.747Z,0
2017-02-14T04:06:59.570Z,0
2017-02-14T04:07:47.911Z,0
2017-02-14T04:08:36.399Z,0
2017-02-14T04:09:25.106Z,0
2017-02-14T04:10:13.360Z,0
2017-02-14T04:11:02.207Z,0
2017-02-14T04:11:50.780Z,0
2017-02-14T04:12:39.476Z,0
2017-02-14T04:13:28.392Z,0
2017-02-14T04:14:17.020Z,0
2017-02-14T04:15:05.134Z,0
2017-02-14T04:15:53.779Z,0
2017-02-14T04:16:42.191Z,0
2017-02-14T04:17:31.053Z,0
2017-02-14T04:18:19.607Z,0
2017-02-14T04:19:02.586Z,0
2017-02-14T04:19:43.590Z,0
2017-02-14T04:20:25.549Z,0
2017-02-14T04:21:06.008Z,0
2017-02-14T04:21:46.384Z,0
2017-02-14T04:22:28.490Z,0
2017-02-14T04:23:09.721Z,0
2017-02-14T04:23:51.456Z,0
2017-02-14T04:24:31.870Z,0
2017-02-14T04:25:12.210Z,0
2017-02-14T04:25:52.652Z,0
2017-02-14T04:26:35.984Z,0
2017-02-14T04:27:18.158Z,0
2017-02-14T04:27:58.642Z,0
2017-02-14T04:28:40.476Z,0
2017-02-14T04:29:23.458Z,0
2017-02-14T04:30:03.837Z,0
2017-02-14T04:30:44.317Z,0
2017-02-14T04:31:26.446Z,0
2017-02-14T04:32:09.606Z,0
2017-02-14T04:32:50.534Z,0
2017-02-14T04:33:31.759Z,0
2017-02-14T04:34:15.524Z,0
2017-02-14T04:34:57.563Z,0
2017-02-14T04:35:40.576Z,0
2017-02-14T04:36:21.675Z,0
2017-02-14T04:37:03.044Z,0
2017-02-14T04:37:45.424Z,0
2017-02-14T04:38:30.156Z,0
2017-02-14T04:39:12.153Z,0
2017-02-14T04:39:53.491Z,0
2017-02-14T04:40:36.610Z,0
2017-02-14T04:41:17.058Z,0
2017-02-14T04:42:00.005Z,0
2017-02-14T04:42:42.206Z,0
2017-02-14T04:43:23.476Z,0
2017-02-14T04:44:05.050Z,0
2017-02-14T04:44:47.517Z,0
2017-02-14T04:46:47.898Z,0
2017-02-14T04:47:37.302Z,0
2017-02-14T04:48:26.136Z,0
2017-02-14T04:52:22.412Z,0
2017-02-14T04:53:10.977Z,0
2017-02-14T04:53:57.844Z,0
2017-02-14T04:54:45.337Z,0
2017-02-14T04:55:26.533Z,0
2017-02-14T04:56:07.756Z,0
2017-02-14T04:56:52.093Z,0
2017-02-14T04:57:32.514Z,0
2017-02-14T04:58:13.523Z,0
2017-02-14T04:58:55.358Z,0
2017-02-14T05:02:49.077Z,0
2017-02-14T05:03:35.697Z,0
2017-02-14T05:04:24.104Z,0
2017-02-14T05:05:13.122Z,0
2017-02-14T05:06:01.701Z,0
2017-02-14T05:06:50.479Z,0
2017-02-14T05:07:38.724Z,0
2017-02-14T05:11:57.912Z,0
2017-02-14T05:12:46.973Z,0
2017-02-14T05:13:35.567Z,0
2017-02-14T05:14:24.229Z,0
2017-02-14T05:15:12.650Z,0
2017-02-14T05:17:36.100Z,0
2017-02-14T05:18:25.069Z,0
2017-02-14T05:22:18.793Z,0
2017-02-14T05:23:07.322Z,0
2017-02-14T07:03:43.481Z,0
2017-02-14T07:04:32.238Z,0
2017-02-14T07:05:22.245Z,0
2017-02-14T07:06:11.040Z,0
2017-02-14T07:07:00.485Z,0
2017-02-14T07:08:03.942Z,0
2017-02-14T07:08:52.875Z,0
2017-02-14T07:18:07.961Z,0
2017-02-14T07:18:57.252Z,0
2017-02-14T07:19:46.744Z,0
2017-02-14T07:20:35.330Z,0
2017-02-14T07:21:24.534Z,0
2017-02-14T07:22:12.806Z,0
2017-02-14T07:23:04.793Z,0
2017-02-14T07:28:15.540Z,0
2017-02-14T07:56:45.823Z,0
2017-02-14T07:57:34.530Z,0
2017-02-14T08:03:41.583Z,0
2017-02-14T08:06:07.011Z,0
2017-02-14T08:06:56.216Z,0
2017-02-14T08:07:46.049Z,0
2017-02-14T08:08:34.455Z,0
2017-02-14T08:09:27.341Z,0
2017-02-14T08:10:14.803Z,0
2017-02-14T08:11:09.960Z,0
2017-02-14T08:13:05.937Z,0
2017-02-14T08:13:57.878Z,0
2017-02-14T08:14:48.455Z,0
2017-02-14T08:15:41.233Z,0
2017-02-14T08:16:32.602Z,0
2017-02-14T08:17:24.407Z,0
2017-02-14T08:18:14.360Z,0
2017-02-14T08:19:12.581Z,0
2017-02-14T08:20:02.502Z,0
2017-02-14T08:23:47.006Z,0
2017-02-14T08:24:37.856Z,0
2017-02-14T08:25:32.191Z,0
2017-02-14T08:26:21.431Z,0
2017-02-14T08:27:11.780Z,0
2017-02-14T08:28:03.110Z,0
2017-02-14T08:30:48.437Z,0
2017-02-14T09:23:56.258Z,0
2017-02-14T09:24:48.308Z,0
2017-02-14T09:25:57.869Z,0
2017-02-14T09:26:50.778Z,0
2017-02-14T09:27:40.237Z,0
2017-02-14T09:28:32.456Z,0
2017-02-14T09:29:26.912Z,0
2017-02-14T09:30:18.245Z,0
2017-02-14T09:31:10.705Z,0
2017-02-14T09:32:01.650Z,0
2017-02-14T09:32:55.182Z,0
2017-02-14T09:33:45.267Z,0
2017-02-14T09:34:39.474Z,0
2017-02-14T09:35:23.849Z,0
2017-02-14T09:36:06.442Z,0
2017-02-14T09:36:48.291Z,0
2017-02-14T09:37:32.251Z,0
2017-02-14T09:38:16.027Z,0
2017-02-14T09:38:59.630Z,0
2017-02-14T09:39:44.103Z,0
2017-02-14T09:40:24.847Z,0
2017-02-14T09:41:08.723Z,0
2017-02-14T09:41:52.032Z,0
2017-02-14T09:42:39.112Z,0
2017-02-14T09:45:06.669Z,0
2017-02-14T09:45:56.257Z,0
2017-02-14T09:46:45.294Z,0
2017-02-14T09:47:35.689Z,0
2017-02-14T09:48:25.072Z,0
2017-02-14T11:02:36.752Z,1006.66
2017-02-14T11:03:24.194Z,1006.65
2017-02-14T11:04:10.558Z,1006.69
2017-02-14T11:04:51.849Z,1006.63
2017-02-14T11:05:32.443Z,1006.68
2017-02-14T11:06:12.851Z,1006.64
2017-02-14T11:06:54.205Z,1006.65
2017-02-14T11:07:34.660Z,1006.66
2017-02-14T11:08:15.135Z,1006.61
2017-02-14T11:08:55.628Z,1006.65
2017-02-14T11:09:36.080Z,1006.63
2017-02-14T11:10:16.569Z,1006.61
2017-02-14T11:10:57.045Z,1006.62
2017-02-14T11:11:37.496Z,1006.57
2017-02-14T11:12:18.006Z,1006.63
2017-02-14T11:13:07.830Z,1006.63
2017-02-14T11:13:49.840Z,1006.62
2017-02-14T11:14:35.932Z,1006.62
2017-02-14T11:15:17.324Z,1006.65
2017-02-14T11:15:57.872Z,1006.65
2017-02-14T11:18:19.043Z,1006.65
2017-02-14T11:19:07.778Z,1006.64
2017-02-14T11:19:56.391Z,1006.64
2017-02-14T11:20:44.933Z,1006.61
2017-02-14T11:21:33.562Z,1006.61
2017-02-14T11:22:22.551Z,1006.59
2017-02-14T11:23:10.772Z,1006.62
2017-02-14T11:23:59.220Z,1006.61
2017-02-14T11:24:47.874Z,1006.61
2017-02-14T11:25:36.509Z,1006.58
2017-02-14T11:29:48.462Z,1006.49
2017-02-14T19:33:56.645Z,0
2017-02-14T19:34:38.663Z,0
2017-02-14T19:35:19.205Z,0
2017-02-14T19:36:10.959Z,0
2017-02-14T19:36:54.257Z,0
2017-02-14T19:37:34.978Z,0
2017-02-14T19:38:16.110Z,0
2017-02-14T19:38:56.765Z,0
2017-02-14T19:39:37.323Z,0
2017-02-14T19:40:19.461Z,0
2017-02-14T19:41:04.088Z,0
2017-02-14T19:41:44.919Z,0
2017-02-14T19:42:25.437Z,0
2017-02-14T19:43:07.719Z,0
2017-02-14T19:43:51.157Z,0
2017-02-14T19:44:38.977Z,0
2017-02-14T19:45:20.497Z,0
2017-02-14T19:46:06.503Z,0
2017-02-14T19:46:51.504Z,0
2017-02-14T19:47:38.483Z,0
2017-02-14T19:50:06.207Z,0
2017-02-14T19:50:55.043Z,0
2017-02-14T19:51:43.413Z,0
2017-02-14T19:52:31.895Z,0
2017-02-14T19:53:20.868Z,0
2017-02-14T19:54:09.537Z,0
2017-02-14T19:54:58.554Z,0
2017-02-14T19:55:46.733Z,0
2017-02-14T19:56:35.507Z,0
2017-02-14T19:57:24.101Z,0
2017-02-14T19:58:12.874Z,0
2017-02-14T19:59:01.346Z,0
2017-02-14T19:59:50.235Z,0
2017-02-14T20:00:39.253Z,0
2017-02-14T20:01:27.461Z,0
2017-02-14T20:02:16.308Z,0
2017-02-14T20:03:04.939Z,0
2017-02-14T20:03:53.119Z,0
2017-02-14T20:04:42.063Z,0
2017-02-14T20:05:30.285Z,0
2017-02-14T20:06:19.074Z,0
2017-02-14T20:07:07.817Z,0
2017-02-14T20:07:56.796Z,0
2017-02-14T20:08:45.369Z,0
2017-02-14T20:09:33.894Z,0
2017-02-14T20:10:22.528Z,0
2017-02-14T20:11:11.116Z,0
2017-02-14T20:12:00.422Z,0
2017-02-14T20:12:49.327Z,0
2017-02-14T20:13:38.220Z,0
2017-02-14T20:14:27.075Z,0
2017-02-14T20:15:15.715Z,0
2017-02-14T20:16:04.073Z,0
2017-02-14T20:16:52.941Z,0
2017-02-14T20:17:41.716Z,0
2017-02-14T20:18:30.386Z,0
2017-02-14T20:19:18.866Z,0
2017-02-14T20:20:07.471Z,0
2017-02-14T20:20:56.421Z,0
2017-02-14T20:21:44.906Z,0
2017-02-14T20:22:34.357Z,0
2017-02-14T20:23:22.403Z,0
2017-02-14T20:24:11.071Z,0
2017-02-14T20:25:00.094Z,0
2017-02-14T20:25:48.498Z,0
2017-02-14T20:26:37.761Z,0
2017-02-14T20:27:25.616Z,0
2017-02-14T20:28:14.652Z,0
2017-02-14T20:29:03.017Z,0
2017-02-14T20:29:52.273Z,0
2017-02-14T20:30:40.803Z,0
2017-02-14T20:31:29.285Z,0
2017-02-14T20:33:49.638Z,0
2017-02-14T20:34:37.412Z,0
2017-02-14T20:35:26.240Z,0
2017-02-14T20:36:15.160Z,0
2017-02-14T20:37:03.243Z,0
2017-02-14T20:37:52.045Z,0
2017-02-14T20:38:40.783Z,0
2017-02-14T20:39:29.624Z,0
2017-02-14T20:40:18.282Z,0
2017-02-14T20:41:11.601Z,0
2017-02-14T20:42:00.458Z,0
2017-02-14T20:42:48.916Z,0
2017-02-14T20:43:38.112Z,0
2017-02-14T20:44:26.687Z,0
2017-02-14T20:45:15.051Z,0
2017-02-14T20:46:03.840Z,0
2017-02-14T20:46:52.870Z,0
2017-02-14T20:47:41.397Z,0
2017-02-14T20:48:30.506Z,0
2017-02-14T20:49:18.834Z,0
2017-02-14T20:50:07.049Z,0
2017-02-14T20:50:55.850Z,0
2017-02-14T20:51:44.550Z,0
2017-02-14T20:52:33.427Z,0
2017-02-14T20:53:22.023Z,0
2017-02-14T20:54:10.782Z,0
2017-02-14T20:54:59.649Z,0
2017-02-14T20:55:48.279Z,0
2017-02-14T20:56:37.438Z,0
2017-02-14T20:57:25.518Z,0
2017-02-14T20:58:15.127Z,0
2017-02-14T20:59:03.579Z,0
2017-02-14T20:59:51.995Z,0
2017-02-14T21:00:40.715Z,0
2017-02-14T21:01:29.483Z,0
2017-02-14T21:02:17.887Z,0
2017-02-14T21:03:06.824Z,0
2017-02-14T21:03:55.378Z,0
2017-02-14T21:04:44.018Z,0
2017-02-14T21:05:32.838Z,0
2017-02-14T21:06:21.600Z,0
2017-02-14T21:07:10.020Z,0
2017-02-14T21:07:59.132Z,0
2017-02-14T21:08:47.531Z,0
2017-02-14T21:09:36.278Z,0
2017-02-14T21:10:24.823Z,0
2017-02-14T21:11:13.802Z,0
2017-02-14T21:12:02.448Z,0
2017-02-14T21:12:51.181Z,0
2017-02-14T21:13:39.440Z,0
2017-02-14T21:14:28.423Z,0
2017-02-14T21:15:16.908Z,0
2017-02-14T21:16:05.955Z,0
2017-02-14T21:16:54.738Z,0
2017-02-14T21:17:43.447Z,0
2017-02-14T21:18:31.986Z,0
2017-02-14T21:19:20.798Z,0
2017-02-14T21:20:09.284Z,0
2017-02-14T21:20:58.256Z,0
2017-02-14T21:21:46.345Z,0
2017-02-14T21:22:30.243Z,0
2017-02-14T21:23:11.314Z,0
2017-02-14T21:23:53.630Z,0
2017-02-14T21:24:34.259Z,0
2017-02-14T21:25:15.418Z,0
2017-02-14T21:25:56.914Z,0
2017-02-14T21:26:37.994Z,0
2017-02-14T21:27:19.907Z,0
2017-02-14T21:28:00.369Z,0
2017-02-14T21:28:41.520Z,0
2017-02-14T21:29:22.768Z,0
2017-02-14T21:30:03.958Z,0
2017-02-14T21:30:45.848Z,0
2017-02-14T21:31:26.263Z,0
2017-02-14T21:32:10.352Z,0
2017-02-14T21:32:51.511Z,0
2017-02-14T21:33:31.973Z,0
2017-02-14T21:34:15.754Z,0
2017-02-14T21:34:56.229Z,0
2017-02-14T21:35:37.132Z,0
2017-02-14T21:36:18.168Z,0
2017-02-14T21:36:58.553Z,0
2017-02-14T21:37:38.963Z,0
2017-02-14T21:38:20.767Z,0
2017-02-14T21:39:01.819Z,0
2017-02-14T21:39:42.245Z,0
2017-02-14T21:40:23.184Z,0
2017-02-14T21:41:05.170Z,0
2017-02-14T21:41:47.205Z,0
2017-02-14T21:42:27.644Z,0
2017-02-14T21:43:09.725Z,0
2017-02-14T21:43:50.718Z,0
2017-02-14T21:44:36.657Z,0
2017-02-14T21:45:17.753Z,0
2017-02-14T21:45:58.676Z,0
2017-02-14T21:46:42.678Z,0
2017-02-14T21:47:23.683Z,0
2017-02-14T21:48:04.837Z,0
2017-02-14T21:48:45.880Z,0
2017-02-14T21:49:26.759Z,0
2017-02-14T21:50:07.994Z,0
2017-02-14T21:50:48.408Z,0
2017-02-14T21:51:30.423Z,0
2017-02-14T21:52:10.105Z,0
2017-02-14T21:52:51.428Z,0
2017-02-14T21:53:32.541Z,0
2017-02-14T21:54:12.945Z,0
2017-02-14T21:54:53.316Z,0
2017-02-14T21:55:33.897Z,0
2017-02-14T21:56:14.344Z,0
2017-02-14T21:56:55.298Z,0
2017-02-14T21:57:35.928Z,0
2017-02-14T21:58:16.938Z,0
2017-02-14T21:58:58.741Z,0
2017-02-14T21:59:40.981Z,0
2017-02-14T22:00:21.331Z,0
2017-02-14T22:01:01.714Z,0
2017-02-14T22:01:42.946Z,0
2017-02-14T22:02:23.843Z,0
2017-02-14T22:03:04.266Z,0
2017-02-14T22:03:45.256Z,0
2017-02-14T22:04:26.351Z,0
2017-02-14T22:05:07.416Z,0
2017-02-14T22:09:15.107Z,0
2017-02-14T22:10:03.418Z,0
2017-02-14T22:10:52.150Z,0
2017-02-14T22:11:40.718Z,0
2017-02-14T22:12:29.272Z,0
2017-02-14T22:13:17.884Z,0
2017-02-14T22:14:04.483Z,0
2017-02-14T22:14:53.482Z,0
2017-02-14T22:15:41.966Z,0
2017-02-14T22:16:31.200Z,0
2017-02-14T22:17:19.404Z,0
2017-02-14T22:18:08.054Z,0
2017-02-14T22:18:56.952Z,0
2017-02-14T22:19:45.218Z,0
2017-02-14T22:20:33.865Z,0
2017-02-14T22:21:22.473Z,0
2017-02-14T22:22:11.282Z,0
2017-02-14T22:22:59.834Z,0
2017-02-14T22:23:48.676Z,0
2017-02-14T22:24:37.328Z,0
2017-02-14T22:25:21.043Z,0
2017-02-14T22:26:02.339Z,0
2017-02-14T22:26:42.748Z,0
2017-02-14T22:27:23.872Z,0
2017-02-14T22:28:04.290Z,0
2017-02-14T22:28:44.684Z,0
2017-02-14T22:29:25.116Z,0
2017-02-14T22:30:05.517Z,0
2017-02-14T22:30:45.962Z,0
2017-02-14T22:31:26.405Z,0
2017-02-14T22:32:06.834Z,0
2017-02-14T22:32:47.263Z,0
2017-02-14T22:33:27.634Z,0
2017-02-14T22:34:08.599Z,0
2017-02-14T22:34:49.886Z,0
2017-02-14T22:35:30.339Z,0
2017-02-14T22:36:11.391Z,0
2017-02-14T22:36:51.865Z,0
2017-02-14T22:37:32.225Z,0
2017-02-14T22:38:12.645Z,0
2017-02-14T22:38:53.067Z,0
2017-02-14T22:39:33.454Z,0
2017-02-14T22:40:13.852Z,0
2017-02-14T22:40:55.058Z,0
2017-02-14T22:41:35.517Z,0
2017-02-14T22:42:16.669Z,0
2017-02-14T22:42:57.095Z,0
2017-02-14T22:43:38.414Z,0
2017-02-14T22:44:18.835Z,0
2017-02-14T22:45:00.453Z,0
2017-02-14T22:45:41.885Z,0
2017-02-14T22:46:22.893Z,0
2017-02-14T22:47:06.167Z,0
2017-02-14T22:47:46.570Z,0
2017-02-14T22:48:27.647Z,0
2017-02-14T22:49:08.119Z,0
2017-02-14T22:49:48.484Z,0
2017-02-14T22:50:31.618Z,0
2017-02-14T22:51:17.265Z,0
2017-02-14T22:51:59.285Z,0
2017-02-14T22:54:05.700Z,0
2017-02-14T22:54:54.329Z,0
2017-02-14T22:55:42.695Z,0
2017-02-14T22:56:31.527Z,0
2017-02-14T22:57:19.643Z,0
2017-02-14T22:58:08.460Z,0
2017-02-14T22:58:56.656Z,0
2017-02-14T22:59:45.308Z,0
2017-02-14T23:00:34.242Z,0
2017-02-14T23:01:22.883Z,0
2017-02-14T23:02:11.173Z,0
2017-02-14T23:02:59.707Z,0
2017-02-14T23:03:48.486Z,0
2017-02-14T23:04:36.982Z,0
2017-02-14T23:05:25.959Z,0
2017-02-14T23:06:14.216Z,0
2017-02-14T23:07:02.700Z,0
2017-02-14T23:07:51.266Z,0
2017-02-14T23:08:40.997Z,0
2017-02-14T23:09:29.578Z,0
2017-02-14T23:10:18.129Z,0
2017-02-14T23:11:06.652Z,0
2017-02-14T23:11:55.616Z,0
2017-02-14T23:12:44.039Z,0
2017-02-14T23:13:32.610Z,0
2017-02-14T23:14:21.260Z,0
2017-02-14T23:15:10.031Z,0
2017-02-14T23:15:58.458Z,0
2017-02-14T23:16:47.037Z,0
2017-02-14T23:17:35.586Z,0
2017-02-14T23:18:24.480Z,0
2017-02-14T23:19:12.714Z,0
2017-02-14T23:20:01.510Z,0
2017-02-14T23:20:50.407Z,0
2017-02-14T23:21:38.911Z,0
2017-02-14T23:22:21.761Z,0
2017-02-14T23:23:02.128Z,0
2017-02-14T23:23:42.520Z,0
2017-02-14T23:24:24.395Z,0
2017-02-14T23:25:04.790Z,0
2017-02-14T23:25:45.246Z,0
2017-02-14T23:26:25.636Z,0
2017-02-14T23:27:06.075Z,0
2017-02-14T23:27:49.062Z,0
2017-02-14T23:28:31.972Z,0
2017-02-14T23:29:13.114Z,0
2017-02-14T23:29:53.536Z,0
2017-02-14T23:30:33.980Z,0
2017-02-14T23:31:14.332Z,0
2017-02-14T23:31:54.728Z,0
2017-02-14T23:32:35.124Z,0
2017-02-14T23:33:15.525Z,0
2017-02-14T23:33:55.932Z,0
2017-02-14T23:34:36.358Z,0
2017-02-14T23:35:16.713Z,0
2017-02-14T23:35:57.087Z,0
2017-02-14T23:36:37.527Z,0
2017-02-14T23:37:17.941Z,0
2017-02-14T23:37:58.304Z,0
2017-02-14T23:38:40.700Z,0
2017-02-14T23:39:21.963Z,0
2017-02-14T23:40:04.137Z,0
2017-02-14T23:40:45.064Z,0
2017-02-14T23:41:27.419Z,0
2017-02-14T23:42:07.844Z,0
2017-02-14T23:42:48.258Z,0
2017-02-14T23:43:30.125Z,0
2017-02-14T23:44:11.139Z,0
2017-02-14T23:44:51.539Z,0
2017-02-14T23:45:31.939Z,0
2017-02-14T23:46:12.317Z,0
2017-02-14T23:46:52.731Z,0
2017-02-14T23:47:33.151Z,0
2017-02-14T23:48:13.639Z,0
2017-02-14T23:48:53.995Z,0
2017-02-14T23:49:35.155Z,0
2017-02-14T23:50:15.517Z,0
2017-02-14T23:50:55.903Z,0
2017-02-14T23:51:36.299Z,0
2017-02-14T23:52:16.709Z,0
2017-02-14T23:52:57.145Z,0
2017-02-14T23:53:37.565Z,0
2017-02-14T23:54:17.938Z,0
2017-02-14T23:54:58.448Z,0
2017-02-14T23:55:38.832Z,0
2017-02-14T23:56:19.233Z,0
2017-02-14T23:56:59.680Z,0
2017-02-14T23:57:40.982Z,0
2017-02-14T23:58:21.358Z,0
2017-02-14T23:59:01.811Z,0
2017-02-14T23:59:42.166Z,0
